createdAt,value
2022-11-30T00:01:39.078Z,57.17
2022-11-30T00:04:06.496Z,56.07
2022-11-30T00:06:34.472Z,57.37
2022-11-30T00:09:01.938Z,63.37
2022-11-30T00:11:30.800Z,72.30
2022-11-30T00:13:58.211Z,59.47
2022-11-30T00:16:27.437Z,56.73
2022-11-30T00:18:54.958Z,63.67
2022-11-30T00:21:22.657Z,70.90
2022-11-30T00:23:50.105Z,60.20
2022-11-30T00:26:18.493Z,65.70
2022-11-30T00:28:47.683Z,63.13
2022-11-30T00:31:16.005Z,69.77
2022-11-30T00:33:43.756Z,61.63
2022-11-30T00:36:12.486Z,61.13
2022-11-30T00:38:40.357Z,67.37
2022-11-30T00:41:08.033Z,64.80
2022-11-30T00:43:35.486Z,67.10
2022-11-30T00:46:04.476Z,71.20
2022-11-30T00:48:32.078Z,71.37
2022-11-30T00:50:59.544Z,73.40
2022-11-30T00:53:26.917Z,70.80
2022-11-30T00:55:54.377Z,70.90
2022-11-30T00:58:21.936Z,63.40
2022-11-30T01:00:49.373Z,78.27
2022-11-30T01:03:18.200Z,82.97
2022-11-30T01:05:46.027Z,80.60
2022-11-30T01:08:13.984Z,76.93
2022-11-30T01:10:42.567Z,78.53
2022-11-30T01:13:10.302Z,77.53
2022-11-30T01:15:38.191Z,76.63
2022-11-30T01:18:05.672Z,82.87
2022-11-30T01:20:34.823Z,81.13
2022-11-30T01:23:02.456Z,77.77
2022-11-30T01:25:29.905Z,103.27
2022-11-30T01:27:57.311Z,94.70
2022-11-30T01:30:24.671Z,112.63
2022-11-30T01:32:52.144Z,92.37
2022-11-30T01:35:19.566Z,79.77
2022-11-30T01:37:48.378Z,84.37
2022-11-30T01:40:15.838Z,92.47
2022-11-30T01:42:46.417Z,88.53
2022-11-30T01:45:14.318Z,95.37
2022-11-30T01:47:43.173Z,103.07
2022-11-30T01:50:12.358Z,91.73
2022-11-30T01:52:41.001Z,88.53
2022-11-30T01:55:14.445Z,97.77
2022-11-30T01:57:43.333Z,95.53
2022-11-30T02:00:13.496Z,83.43
2022-11-30T02:02:44.068Z,125.07
2022-11-30T02:05:12.336Z,93.10
2022-11-30T02:07:40.234Z,79.87
2022-11-30T02:10:08.388Z,107.43
2022-11-30T02:12:40.375Z,102.13
2022-11-30T02:15:11.111Z,91.00
2022-11-30T02:17:41.625Z,100.77
2022-11-30T02:20:20.748Z,117.83
2022-11-30T02:22:55.046Z,126.37
2022-11-30T02:25:27.831Z,107.33
2022-11-30T02:28:05.433Z,99.80
2022-11-30T02:30:35.730Z,107.77
2022-11-30T02:33:05.926Z,110.47
2022-11-30T02:35:34.562Z,124.20
2022-11-30T02:38:02.349Z,90.97
2022-11-30T02:40:29.758Z,113.80
2022-11-30T02:42:58.934Z,116.40
2022-11-30T02:45:30.725Z,95.87
2022-11-30T02:48:03.610Z,83.93
2022-11-30T02:50:34.538Z,82.17
2022-11-30T02:53:02.171Z,83.87
2022-11-30T02:55:30.187Z,81.20
2022-11-30T02:57:57.548Z,81.20
2022-11-30T03:00:25.165Z,78.03
2022-11-30T03:02:52.833Z,84.23
2022-11-30T03:05:21.905Z,83.43
2022-11-30T03:07:49.424Z,82.30
2022-11-30T03:10:17.014Z,82.37
2022-11-30T03:12:44.420Z,75.57
2022-11-30T03:15:12.140Z,84.47
2022-11-30T03:17:39.585Z,76.40
2022-11-30T03:20:07.988Z,88.40
2022-11-30T03:22:36.930Z,72.80
2022-11-30T03:25:04.463Z,68.20
2022-11-30T03:27:31.929Z,78.87
2022-11-30T03:29:59.344Z,78.53
2022-11-30T03:32:26.808Z,77.63
2022-11-30T03:34:54.286Z,77.03
2022-11-30T03:37:21.714Z,76.60
2022-11-30T03:39:53.619Z,77.40
2022-11-30T03:42:25.371Z,76.97
2022-11-30T03:44:52.759Z,85.10
2022-11-30T03:47:20.397Z,81.27
2022-11-30T03:49:47.802Z,75.30
2022-11-30T03:52:15.206Z,69.03
2022-11-30T03:54:42.675Z,71.20
2022-11-30T03:57:11.490Z,74.27
2022-11-30T03:59:39.000Z,66.83
2022-11-30T04:02:06.536Z,64.30
2022-11-30T04:04:34.024Z,73.60
2022-11-30T04:07:01.557Z,68.33
2022-11-30T04:09:28.942Z,66.73
2022-11-30T04:11:56.414Z,66.63
2022-11-30T04:14:25.139Z,73.23
2022-11-30T04:16:52.602Z,66.07
2022-11-30T04:19:20.008Z,61.93
2022-11-30T04:21:47.601Z,65.07
2022-11-30T04:24:15.428Z,65.77
2022-11-30T04:26:43.002Z,72.33
2022-11-30T04:29:10.557Z,62.50
2022-11-30T04:31:39.392Z,59.37
2022-11-30T04:34:06.896Z,59.63
2022-11-30T04:36:34.311Z,64.43
2022-11-30T04:39:01.770Z,66.87
2022-11-30T04:41:29.223Z,82.33
2022-11-30T04:43:56.812Z,63.80
2022-11-30T04:46:24.362Z,67.10
2022-11-30T04:48:53.138Z,67.33
2022-11-30T04:51:20.527Z,91.57
2022-11-30T04:53:47.941Z,80.87
2022-11-30T04:56:15.348Z,81.43
2022-11-30T04:58:42.842Z,83.13
2022-11-30T05:01:10.451Z,129.67
2022-11-30T05:03:38.097Z,95.13
2022-11-30T05:06:07.307Z,77.93
2022-11-30T05:08:34.713Z,81.47
2022-11-30T05:11:02.104Z,87.43
2022-11-30T05:13:29.569Z,92.43
2022-11-30T05:15:57.025Z,116.47
2022-11-30T05:18:24.581Z,107.70
2022-11-30T05:20:52.879Z,106.43
2022-11-30T05:23:22.062Z,102.60
2022-11-30T05:25:49.521Z,110.03
2022-11-30T05:28:17.220Z,100.47
2022-11-30T05:30:44.829Z,110.50
2022-11-30T05:33:12.685Z,91.37
2022-11-30T05:35:40.101Z,113.10
2022-11-30T05:38:07.516Z,94.67
2022-11-30T05:40:36.620Z,96.50
2022-11-30T05:43:05.252Z,95.23
2022-11-30T05:45:32.901Z,93.33
2022-11-30T05:48:00.393Z,86.93
2022-11-30T05:50:27.867Z,90.17
2022-11-30T05:52:56.237Z,89.57
2022-11-30T05:55:23.955Z,97.13
2022-11-30T05:57:52.915Z,86.90
2022-11-30T06:00:21.152Z,90.17
2022-11-30T06:02:48.736Z,80.30
2022-11-30T06:05:16.323Z,88.87
2022-11-30T06:07:43.861Z,83.53
2022-11-30T06:10:11.924Z,84.37
2022-11-30T06:12:39.385Z,94.43
2022-11-30T06:15:08.930Z,81.13
2022-11-30T06:17:37.844Z,94.03
2022-11-30T06:20:05.521Z,78.50
2022-11-30T06:22:33.071Z,85.47
2022-11-30T06:25:00.557Z,81.70
2022-11-30T06:27:30.745Z,88.57
2022-11-30T06:29:58.166Z,75.97
2022-11-30T06:32:26.988Z,82.13
2022-11-30T06:34:54.413Z,78.50
2022-11-30T06:37:21.820Z,82.90
2022-11-30T06:42:37.243Z,86.13
2022-11-30T06:45:05.143Z,80.13
2022-11-30T06:47:34.031Z,80.30
2022-11-30T06:50:01.587Z,71.17
2022-11-30T06:52:30.705Z,66.83
2022-11-30T06:54:58.179Z,68.90
2022-11-30T06:57:27.530Z,70.23
2022-11-30T06:59:54.973Z,63.57
2022-11-30T07:02:22.535Z,60.40
2022-11-30T07:04:51.422Z,62.27
2022-11-30T07:07:18.822Z,60.13
2022-11-30T07:09:46.269Z,55.57
2022-11-30T07:12:13.740Z,63.90
2022-11-30T07:14:41.165Z,60.07
2022-11-30T07:17:08.634Z,57.10
2022-11-30T07:19:36.140Z,55.90
2022-11-30T07:22:04.925Z,63.40
2022-11-30T07:24:50.229Z,56.37
2022-11-30T07:27:17.799Z,55.50
2022-11-30T07:29:45.386Z,56.10
2022-11-30T07:32:12.926Z,52.23
2022-11-30T07:34:40.416Z,55.60
2022-11-30T07:37:09.221Z,53.40
2022-11-30T07:39:36.641Z,51.30
2022-11-30T07:42:04.526Z,47.60
2022-11-30T07:44:32.848Z,47.20
2022-11-30T07:47:00.877Z,45.90
2022-11-30T07:49:28.298Z,48.87
2022-11-30T07:51:55.762Z,52.07
2022-11-30T07:54:24.569Z,50.10
2022-11-30T07:56:52.029Z,46.27
2022-11-30T07:59:19.476Z,50.93
2022-11-30T08:01:46.951Z,47.17
2022-11-30T08:04:14.881Z,48.17
2022-11-30T08:06:42.523Z,44.83
2022-11-30T08:09:16.560Z,44.90
2022-11-30T08:11:49.679Z,45.70
2022-11-30T08:14:17.201Z,45.03
2022-11-30T08:16:44.888Z,47.67
2022-11-30T08:19:12.468Z,45.00
2022-11-30T08:21:39.839Z,42.40
2022-11-30T08:24:07.316Z,43.40
2022-11-30T08:26:34.870Z,38.87
2022-11-30T08:29:03.871Z,40.73
2022-11-30T08:31:32.712Z,37.93
2022-11-30T08:34:00.605Z,33.67
2022-11-30T08:36:28.958Z,37.07
2022-11-30T08:38:57.856Z,34.80
2022-11-30T08:41:25.347Z,35.70
2022-11-30T08:43:53.125Z,38.10
2022-11-30T08:49:21.550Z,36.67
2022-11-30T08:54:39.028Z,33.90
2022-11-30T08:57:06.477Z,29.90
2022-11-30T08:59:34.005Z,39.47
2022-11-30T09:02:02.763Z,34.60
2022-11-30T09:04:30.194Z,35.73
2022-11-30T09:06:59.040Z,37.87
2022-11-30T09:09:26.743Z,36.40
2022-11-30T09:11:54.173Z,33.67
2022-11-30T09:14:21.546Z,33.20
2022-11-30T09:16:49.327Z,31.27
2022-11-30T09:19:18.096Z,33.27
2022-11-30T09:21:51.558Z,37.87
2022-11-30T09:24:19.603Z,34.50
2022-11-30T09:26:47.020Z,31.97
2022-11-30T09:29:14.457Z,36.90
2022-11-30T09:31:41.912Z,31.77
2022-11-30T09:34:11.729Z,37.30
2022-11-30T09:36:40.486Z,34.03
2022-11-30T09:39:07.874Z,31.93
2022-11-30T09:41:53.246Z,32.57
2022-11-30T09:44:24.710Z,34.60
2022-11-30T09:46:59.135Z,33.03
2022-11-30T09:49:28.521Z,35.00
2022-11-30T09:51:59.695Z,35.97
2022-11-30T09:54:35.301Z,31.83
2022-11-30T09:57:04.518Z,34.73
2022-11-30T09:59:34.466Z,35.90
2022-11-30T10:02:03.358Z,32.93
2022-11-30T10:04:30.944Z,31.53
2022-11-30T10:07:06.750Z,34.00
2022-11-30T10:09:39.754Z,34.53
2022-11-30T10:12:10.238Z,33.13
2022-11-30T10:14:50.048Z,40.27
2022-11-30T10:17:22.934Z,32.37
2022-11-30T10:20:04.226Z,35.73
2022-11-30T10:22:36.275Z,34.50
2022-11-30T10:25:13.941Z,38.53
2022-11-30T10:27:49.277Z,35.43
2022-11-30T10:30:17.665Z,37.77
2022-11-30T10:32:46.538Z,33.10
2022-11-30T10:35:20.693Z,38.00
2022-11-30T10:37:50.369Z,36.33
2022-11-30T10:40:19.351Z,39.10
2022-11-30T10:42:48.039Z,39.33
2022-11-30T10:45:18.417Z,40.20
2022-11-30T10:47:47.822Z,38.60
2022-11-30T10:50:16.796Z,36.90
2022-11-30T10:52:45.833Z,41.17
2022-11-30T10:55:16.455Z,37.70
2022-11-30T10:57:44.011Z,40.03
2022-11-30T11:00:13.800Z,44.10
2022-11-30T11:02:42.947Z,40.80
2022-11-30T11:05:15.116Z,38.80
2022-11-30T11:07:47.474Z,37.70
2022-11-30T11:10:17.497Z,37.73
2022-11-30T11:12:47.722Z,36.87
2022-11-30T11:15:19.557Z,40.43
2022-11-30T11:17:47.178Z,46.17
2022-11-30T11:20:31.439Z,42.33
2022-11-30T11:22:58.913Z,43.50
2022-11-30T11:25:32.385Z,41.83
2022-11-30T11:28:04.001Z,42.20
2022-11-30T11:30:32.084Z,40.90
2022-11-30T11:33:00.103Z,42.77
2022-11-30T11:35:35.579Z,42.40
2022-11-30T11:38:03.033Z,41.67
2022-11-30T11:40:31.864Z,41.47
2022-11-30T11:43:00.674Z,42.57
2022-11-30T11:45:29.635Z,41.00
2022-11-30T11:47:59.693Z,42.30
2022-11-30T11:51:04.885Z,44.23
2022-11-30T11:53:24.132Z,42.77
2022-11-30T11:55:54.987Z,41.23
2022-11-30T11:58:26.163Z,43.07
2022-11-30T12:01:16.867Z,40.93
2022-11-30T12:03:44.926Z,39.70
2022-11-30T12:06:14.509Z,41.97
2022-11-30T12:08:45.286Z,44.33
2022-11-30T12:11:16.006Z,42.20
2022-11-30T12:13:44.402Z,47.63
2022-11-30T12:16:21.146Z,45.47
2022-11-30T12:18:52.438Z,48.00
2022-11-30T12:21:24.857Z,46.97
2022-11-30T12:23:58.741Z,46.27
2022-11-30T12:26:31.420Z,51.13
2022-11-30T12:29:09.888Z,48.67
2022-11-30T12:31:41.226Z,47.73
2022-11-30T12:34:11.406Z,45.03
2022-11-30T12:36:44.203Z,47.43
2022-11-30T12:39:18.759Z,53.30
2022-11-30T12:41:50.875Z,49.53
2022-11-30T12:44:28.623Z,53.40
2022-11-30T12:46:59.657Z,50.53
2022-11-30T12:49:34.964Z,53.70
2022-11-30T12:52:04.298Z,50.57
2022-11-30T12:54:35.359Z,50.73
2022-11-30T12:57:11.811Z,51.57
2022-11-30T12:59:44.135Z,54.50
2022-11-30T13:02:23.098Z,51.27
2022-11-30T13:04:58.279Z,50.90
2022-11-30T13:07:28.615Z,51.27
2022-11-30T13:09:58.634Z,55.63
2022-11-30T13:12:35.870Z,52.97
2022-11-30T13:15:05.585Z,52.03
2022-11-30T13:17:33.387Z,53.60
2022-11-30T13:20:07.726Z,53.90
2022-11-30T13:22:43.582Z,54.87
2022-11-30T13:25:18.539Z,50.80
2022-11-30T13:27:55.640Z,57.50
2022-11-30T13:30:32.084Z,52.90
2022-11-30T13:33:31.087Z,51.93
2022-11-30T13:35:58.499Z,54.57
2022-11-30T13:38:36.943Z,49.20
2022-11-30T13:41:07.025Z,48.10
2022-11-30T13:43:38.113Z,50.37
2022-11-30T13:46:06.889Z,49.23
2022-11-30T13:48:35.358Z,53.00
2022-11-30T13:51:02.925Z,53.07
2022-11-30T13:53:34.077Z,50.33
2022-11-30T13:56:02.741Z,55.70
2022-11-30T13:58:30.622Z,52.00
2022-11-30T14:01:04.961Z,54.23
2022-11-30T14:03:32.985Z,52.70
2022-11-30T14:06:01.035Z,52.80
2022-11-30T14:08:33.075Z,61.60
2022-11-30T14:11:19.355Z,53.63
2022-11-30T14:13:46.781Z,52.37
2022-11-30T14:16:22.736Z,51.67
2022-11-30T14:18:50.375Z,54.33
2022-11-30T14:21:19.311Z,51.90
2022-11-30T14:23:49.703Z,53.00
2022-11-30T14:26:18.346Z,50.63
2022-11-30T14:28:51.237Z,51.97
2022-11-30T14:31:21.645Z,53.43
2022-11-30T14:33:52.294Z,54.50
2022-11-30T14:36:20.730Z,55.80
2022-11-30T14:38:48.146Z,54.33
2022-11-30T14:41:22.618Z,54.50
2022-11-30T14:44:03.416Z,53.43
2022-11-30T14:46:30.922Z,48.73
2022-11-30T14:49:06.728Z,52.53
2022-11-30T14:51:34.339Z,55.80
2022-11-30T14:54:05.355Z,54.87
2022-11-30T14:56:35.530Z,56.50
2022-11-30T14:59:06.719Z,56.53
2022-11-30T15:01:34.737Z,60.60
2022-11-30T15:04:05.622Z,56.40
2022-11-30T15:06:34.656Z,53.20
2022-11-30T15:09:02.757Z,55.90
2022-11-30T15:11:30.473Z,57.40
2022-11-30T15:13:58.699Z,52.27
2022-11-30T15:16:28.080Z,55.60
2022-11-30T15:18:56.412Z,53.43
2022-11-30T15:21:25.787Z,56.20
2022-11-30T15:23:55.668Z,53.53
2022-11-30T15:26:27.469Z,51.17
2022-11-30T15:28:57.129Z,51.90
2022-11-30T15:31:25.398Z,51.07
2022-11-30T15:33:52.924Z,50.33
2022-11-30T15:36:32.471Z,53.50
2022-11-30T15:39:03.229Z,53.60
2022-11-30T15:41:30.815Z,54.70
2022-11-30T15:43:58.756Z,52.40
2022-11-30T15:46:29.307Z,52.87
2022-11-30T15:49:05.714Z,49.53
2022-11-30T15:51:38.327Z,52.40
2022-11-30T15:54:07.207Z,53.70
2022-11-30T15:56:34.831Z,53.20
2022-11-30T15:59:03.408Z,56.93
2022-11-30T16:01:32.072Z,60.47
2022-11-30T16:04:03.906Z,59.57
2022-11-30T16:06:33.029Z,60.10
2022-11-30T16:09:03.744Z,53.50
2022-11-30T16:11:33.521Z,48.77
2022-11-30T16:14:00.901Z,56.87
2022-11-30T16:16:30.340Z,51.50
2022-11-30T16:18:57.769Z,51.80
2022-11-30T16:21:25.620Z,50.87
2022-11-30T16:23:53.060Z,46.50
2022-11-30T16:26:49.387Z,47.90
2022-11-30T16:29:09.834Z,51.87
2022-11-30T16:31:38.727Z,53.67
2022-11-30T16:34:08.061Z,52.03
2022-11-30T16:36:37.173Z,55.13
2022-11-30T16:39:04.887Z,53.00
2022-11-30T16:41:32.354Z,53.93
2022-11-30T16:43:59.815Z,49.70
2022-11-30T16:46:29.412Z,51.30
2022-11-30T16:48:56.892Z,59.60
2022-11-30T16:51:25.858Z,51.13
2022-11-30T16:53:53.254Z,54.87
2022-11-30T16:56:20.690Z,54.00
2022-11-30T16:58:48.183Z,52.13
2022-11-30T17:01:18.086Z,50.27
2022-11-30T17:03:49.440Z,52.70
2022-11-30T17:06:18.564Z,46.80
2022-11-30T17:08:46.177Z,52.27
2022-11-30T17:11:17.353Z,46.07
2022-11-30T17:13:44.864Z,50.80
2022-11-30T17:16:12.438Z,52.37
2022-11-30T17:18:39.897Z,50.37
2022-11-30T17:21:11.571Z,53.47
2022-11-30T17:23:39.051Z,47.87
2022-11-30T17:26:06.544Z,51.07
2022-11-30T17:28:34.003Z,52.13
2022-11-30T17:31:01.451Z,52.17
2022-11-30T17:33:31.326Z,48.53
2022-11-30T17:35:58.719Z,46.83
2022-11-30T17:38:27.969Z,48.30
2022-11-30T17:40:55.453Z,47.00
2022-11-30T17:43:23.067Z,47.20
2022-11-30T17:45:50.537Z,54.93
2022-11-30T17:48:18.028Z,46.73
2022-11-30T17:50:45.701Z,47.03
2022-11-30T17:53:17.916Z,50.97
2022-11-30T17:55:47.484Z,45.77
2022-11-30T17:58:14.923Z,39.87
2022-11-30T18:00:42.354Z,44.90
2022-11-30T18:03:09.880Z,43.17
2022-11-30T18:05:37.310Z,40.70
2022-11-30T18:08:04.972Z,41.37
2022-11-30T18:10:32.421Z,44.10
2022-11-30T18:13:01.304Z,42.73
2022-11-30T18:15:28.732Z,42.00
2022-11-30T18:18:01.010Z,42.53
2022-11-30T18:20:28.792Z,48.67
2022-11-30T18:22:56.182Z,51.60
2022-11-30T18:25:23.627Z,49.97
2022-11-30T18:27:52.938Z,48.47
2022-11-30T18:30:21.730Z,47.57
2022-11-30T18:32:49.124Z,49.13
2022-11-30T18:35:16.605Z,56.30
2022-11-30T18:37:44.058Z,40.80
2022-11-30T18:40:12.065Z,41.10
2022-11-30T18:42:39.447Z,43.53
2022-11-30T18:45:07.469Z,44.83
2022-11-30T18:47:36.323Z,38.13
2022-11-30T18:50:03.769Z,42.70
2022-11-30T18:52:31.210Z,39.60
2022-11-30T18:54:58.609Z,42.33
2022-11-30T18:57:26.041Z,36.97
2022-11-30T18:59:54.099Z,41.47
2022-11-30T19:02:22.037Z,39.47
2022-11-30T19:04:51.140Z,37.70
2022-11-30T19:07:18.727Z,43.00
2022-11-30T19:09:46.306Z,46.67
2022-11-30T19:12:13.732Z,44.70
2022-11-30T19:14:42.734Z,42.43
2022-11-30T19:17:10.164Z,37.63
2022-11-30T19:19:37.634Z,33.13
2022-11-30T19:22:06.593Z,31.67
2022-11-30T19:24:35.644Z,35.77
2022-11-30T19:27:03.076Z,31.80
2022-11-30T19:29:30.475Z,28.63
2022-11-30T19:31:57.883Z,31.90
2022-11-30T19:34:25.364Z,34.53
2022-11-30T19:36:52.793Z,35.30
2022-11-30T19:39:21.644Z,37.53
2022-11-30T19:41:49.066Z,36.27
2022-11-30T19:44:16.760Z,34.40
2022-11-30T19:46:44.267Z,24.50
2022-11-30T19:49:12.019Z,28.33
2022-11-30T19:51:39.519Z,24.20
2022-11-30T19:54:07.025Z,24.80
2022-11-30T19:56:35.789Z,23.70
2022-11-30T19:59:05.748Z,21.43
2022-11-30T20:01:33.712Z,20.70
2022-11-30T20:04:01.287Z,18.37
2022-11-30T20:06:29.664Z,17.53
2022-11-30T20:08:57.283Z,20.70
2022-11-30T20:11:24.849Z,21.33
2022-11-30T20:13:53.672Z,20.10
2022-11-30T20:16:22.025Z,19.23
2022-11-30T20:18:52.722Z,18.13
2022-11-30T20:21:21.575Z,15.67
2022-11-30T20:23:49.333Z,14.77
2022-11-30T20:26:18.115Z,15.53
2022-11-30T20:28:45.868Z,14.80
2022-11-30T20:31:15.496Z,13.13
2022-11-30T20:33:43.031Z,12.60
2022-11-30T20:36:11.136Z,17.20
2022-11-30T20:38:38.649Z,12.50
2022-11-30T20:41:08.770Z,15.83
2022-11-30T20:43:36.134Z,17.43
2022-11-30T20:46:03.556Z,19.93
2022-11-30T20:48:33.795Z,16.97
2022-11-30T20:51:29.306Z,13.07
2022-11-30T20:53:55.488Z,14.77
2022-11-30T20:56:23.192Z,15.60
2022-11-30T20:58:50.573Z,14.40
2022-11-30T21:01:18.971Z,13.87
2022-11-30T21:03:48.098Z,13.47
2022-11-30T21:06:15.826Z,12.53
2022-11-30T21:08:43.493Z,15.13
2022-11-30T21:11:12.182Z,19.47
2022-11-30T21:13:40.089Z,14.77
2022-11-30T21:16:08.590Z,19.70
2022-11-30T21:18:36.511Z,14.47
2022-11-30T21:21:06.445Z,13.27
2022-11-30T21:23:33.929Z,15.00
2022-11-30T21:26:03.652Z,16.13
2022-11-30T21:28:34.939Z,17.03
2022-11-30T21:31:05.814Z,12.43
2022-11-30T21:33:33.335Z,15.43
2022-11-30T21:36:00.940Z,11.77
2022-11-30T21:38:29.672Z,12.53
2022-11-30T21:40:58.171Z,14.67
2022-11-30T21:43:25.631Z,14.27
2022-11-30T21:45:59.841Z,15.03
2022-11-30T21:48:29.081Z,16.07
2022-11-30T21:51:00.384Z,21.40
2022-11-30T21:53:28.304Z,18.37
2022-11-30T21:55:57.166Z,16.27
2022-11-30T21:58:24.637Z,16.87
2022-11-30T22:00:55.416Z,18.17
2022-11-30T22:03:23.301Z,14.73
2022-11-30T22:06:00.746Z,18.97
2022-11-30T22:08:28.327Z,14.87
2022-11-30T22:11:00.133Z,16.60
2022-11-30T22:13:27.517Z,14.63
2022-11-30T22:15:57.908Z,16.03
2022-11-30T22:18:25.384Z,14.47
2022-11-30T22:20:52.836Z,10.83
2022-11-30T22:23:20.256Z,12.93
2022-11-30T22:25:47.626Z,9.43
2022-11-30T22:28:16.406Z,9.77
2022-11-30T22:30:44.462Z,11.40
2022-11-30T22:33:11.860Z,8.43
2022-11-30T22:35:39.350Z,11.17
2022-11-30T22:38:06.798Z,11.00
2022-11-30T22:40:34.256Z,11.40
2022-11-30T22:43:01.698Z,12.00
2022-11-30T22:45:30.540Z,11.77
2022-11-30T22:47:58.520Z,11.00
2022-11-30T22:50:27.959Z,9.60
2022-11-30T22:53:02.779Z,11.33
2022-11-30T22:55:30.640Z,12.87
2022-11-30T22:57:58.163Z,10.63
2022-11-30T23:00:25.567Z,11.70
2022-11-30T23:02:54.446Z,11.23
2022-11-30T23:05:21.921Z,13.70
2022-11-30T23:07:49.412Z,11.50
2022-11-30T23:10:19.016Z,7.90
2022-11-30T23:13:01.706Z,8.90
2022-11-30T23:15:29.124Z,8.00
2022-11-30T23:17:57.921Z,9.90
2022-11-30T23:20:25.414Z,9.67
2022-11-30T23:22:52.853Z,8.50
2022-11-30T23:25:20.377Z,9.07
2022-11-30T23:27:48.117Z,10.60
2022-11-30T23:30:15.770Z,8.50
2022-11-30T23:32:43.147Z,7.90
2022-11-30T23:35:11.975Z,8.80
2022-11-30T23:37:39.372Z,8.90
2022-11-30T23:40:07.636Z,10.17
2022-11-30T23:42:35.154Z,10.20
2022-11-30T23:45:02.742Z,11.53
2022-11-30T23:47:30.169Z,12.40
2022-11-30T23:49:57.575Z,10.63
2022-11-30T23:52:26.388Z,9.63
2022-11-30T23:54:53.967Z,9.47
2022-11-30T23:57:21.625Z,11.50
2022-11-30T23:59:49.713Z,10.30
